Pagrindinis puslapis
METAR-TAF:

METAR-TAF

Oro uostai :

Kišiniovas, Moldavija

platuma: 46-55-40N, ilguma: 028-55-51E, Aukštis: 122 m

Dabartinis oras

Ataskaita buvo paskelbta 36 minutes, ne 06:00 UTC
Vėjas 4 kt iš Šiaurės Rytų, svyruoja nuo Šiaurės ir Rytų
Temperatūra 20°C
Drėgmė 49%
Slėgis 1019 hPa
Matomumas 10 km arba daugiau
nėra debesų žemiau 1500 m ir nėra kamuolinių lietaus debesų

METAR: LUKK 130600Z 05004KT 360V080 CAVOK 20/09 Q1019 R09/D NOSIG

Laikas: 09:36 (06:36 UTC)

Prognozė

Ataskaita buvo paskelbta 1 valandą ir 16 minutes, ne 05:20 UTC
Prognozė galioja nuo 13 metu 06 UTC su 14 metu 06 UTC
Vėjas 9 kt iš Šiaurės
Matomumas 10 km arba daugiau
nėra debesų žemiau 1500 m ir nėra kamuolinių lietaus debesų
Tapsmas
nuo 13 metu 17 UTC su 13 metu 19 UTC
Vėjas 4 kt nuo kintamojo kryptimis

TAF: LUKK 130520Z 1306/1406 36009KT CAVOK BECMG 1317/1319 VRB04KT

Orai ataskaitas ir orų prognozės (METAR, TAF).

turimą stotys yra geltonos ir raudonos taškus žemėlapyje.

Perkelti pele per norėdami pamatyti stoties vardą.

Tada spustelėkite, norėdami matyti oro stebėjimo ir prognozės.

Norėdami pakeisti žemėlapį: spustelėkite ant žalios mygtukų su juodo kryžiaus žemyn,; žalią mygtuką su brūkšneliu, jei norite nutolinti; arba žalių rodyklių gretimoms žemėlapius.


METAR-TAF: